Latest Weather Observations for Tasman Island

IDT60901

Issued at 8:31 pm EST Sunday 25 June 2017 (issued every 10 minutes, with the page automatically refreshed every 10 minutes)

About weather observations | Map of Hobart area stations | Latest observations for Hobart area | Other Formats
Station Details ID: 094155 Name: TASMAN ISLAND Lat: -43.24 Lon: 148.00 Height: 240.0 m
Data from the previous 72 hours. | See also: Recent months at Tasman Island
Date/Time
EST
Temp
°C
App
Temp
°C
Dew
Point
°C
Rel
Hum
%
Delta-T
°C
Wind Press
QNH
hPa
Press
MSL
hPa
Rain since
9am
mm
Dir  Spd
km/h
Gust
km/h
Spd
kts
Gust
kts
25/08:30pm 7.3 0.1 5.8 90 0.7 SW 33 70 18 38 1005.8 1006.0 5.0
25/08:07pm 7.4 1.3 6.7 95 0.3 SW 28 67 15 36 1005.3 1005.6 5.0
25/08:00pm 6.8 1.0 6.1 95 0.3 SW 26 50 14 27 1005.5 1005.8 5.0
25/07:30pm 6.8 -0.2 6.2 96 0.3 WSW 32 78 17 42 1004.7 1005.0 4.8
25/07:28pm 6.7 -0.3 6.0 95 0.3 WSW 32 78 17 42 1004.6 1004.9 4.8
25/07:17pm 6.6 1.9 6.0 96 0.3 S 20 65 11 35 1004.5 1004.8 4.6
25/07:00pm 6.6 3.6 6.0 96 0.3 N 11 33 6 18 1004.1 1004.3 4.0
25/06:44pm 6.5 0.2 5.6 94 0.4 WSW 28 57 15 31 1004.0 1004.2 3.4
25/06:30pm 7.1 1.9 5.7 91 0.6 WSW 22 61 12 33 1003.4 1003.6 1.4
25/06:09pm 7.2 2.8 4.5 83 1.2 W 17 72 9 39 1002.6 1002.8 1.0
25/06:00pm 8.0 3.9 4.2 77 1.7 WNW 15 43 8 23 1002.7 1002.9 0.4
25/05:30pm 8.2 4.9 4.6 78 1.6 NNW 11 35 6 19 1002.2 1002.4 0.4
25/05:00pm 8.0 4.3 4.2 77 1.7 NNW 13 35 7 19 1001.7 1001.9 0.4
25/04:30pm 8.4 4.0 4.6 77 1.7 SW 17 63 9 34 1001.2 1001.5 0.0
25/04:00pm 8.8 5.0 4.0 72 2.1 WNW 13 41 7 22 1001.4 1001.6 0.0
25/03:30pm 9.2 5.0 4.0 70 2.3 WNW 15 33 8 18 1000.8 1001.0 0.0
25/03:00pm 9.2 4.3 4.2 71 2.2 NW 19 41 10 22 1000.5 1000.7 0.0
25/02:30pm 9.1 1.6 3.7 69 2.4 NW 32 54 17 29 1000.5 1000.7 0.0
25/02:14pm 9.4 2.8 4.0 69 2.4 NW 28 46 15 25 1000.4 1000.6 0.0
25/02:00pm 9.5 5.4 4.1 69 2.4 WNW 15 39 8 21 1000.6 1000.8 0.0
25/01:30pm 9.5 4.9 3.7 67 2.6 NW 17 43 9 23 1000.3 1000.5 0.0
25/01:00pm 9.7 2.0 3.4 65 2.8 NW 33 54 18 29 1000.4 1000.6 0.0
25/12:30pm 9.8 1.7 3.3 64 2.9 NW 35 54 19 29 1000.7 1000.9 0.0
25/12:22pm 9.8 2.1 3.3 64 2.9 NW 33 52 18 28 1000.7 1000.9 0.0
25/12:00pm 9.6 0.7 3.1 64 2.9 NW 39 54 21 29 1001.0 1001.3 0.0
25/11:34am 9.7 0.4 3.0 63 2.9 NW 41 61 22 33 1001.2 1001.5 0.0
25/11:30am 9.4 0.1 2.9 64 2.8 NW 41 59 22 32 1001.2 1001.5 0.0
25/11:03am 8.8 -0.5 2.8 66 2.6 NW 41 61 22 33 1001.6 1001.8 0.0
25/11:00am 8.9 -0.4 2.7 65 2.7 NW 41 57 22 31 1001.7 1001.9 0.0
25/10:59am 9.0 0.0 2.6 64 2.7 NW 39 57 21 31 1001.7 1001.9 0.0
25/10:30am 8.3 0.1 2.5 67 2.5 NW 35 50 19 27 1002.2 1002.4 0.0
25/10:14am 8.2 0.3 2.4 67 2.5 NW 33 54 18 29 1002.3 1002.5 0.0
25/10:00am 8.4 0.5 2.4 66 2.6 NW 33 44 18 24 1002.4 1002.6 0.0
25/09:42am 8.6 -0.1 2.2 64 2.7 NW 37 57 20 31 1002.3 1002.5 0.0
25/09:30am 8.5 -0.5 2.3 65 2.6 NW 39 52 21 28 1002.6 1002.8 0.0
25/09:00am 8.3 -0.4 2.3 66 2.6 WNW 37 57 20 31 1002.5 1002.7 0.0
25/08:55am 8.4 0.1 2.4 66 2.5 NW 35 57 19 31 1002.4 1002.6 0.0
25/08:30am 8.1 -0.2 2.1 66 2.5 NW 35 46 19 25 1002.9 1003.1 0.0
25/08:00am 7.9 0.2 2.2 67 2.4 NW 32 43 17 23 1003.1 1003.3 0.0
25/07:30am 8.1 1.1 2.1 66 2.5 NW 28 43 15 23 1003.3 1003.5 0.0
25/07:00am 7.1 1.7 2.2 71 2.1 NW 20 35 11 19 1003.8 1004.0 0.0
25/06:30am 7.3 0.7 2.0 69 2.2 NW 26 37 14 20 1003.6 1003.8 0.0
25/06:00am 7.6 1.0 1.9 67 2.4 NW 26 39 14 21 1003.6 1003.8 0.0
25/05:30am 7.4 1.6 2.1 69 2.2 NW 22 32 12 17 1003.8 1004.0 0.0
25/05:00am 7.0 1.5 1.9 70 2.1 NW 20 33 11 18 1004.0 1004.2 0.0
25/04:30am 6.9 1.4 1.8 70 2.1 NW 20 28 11 15 1004.3 1004.5 0.0
25/04:00am 6.6 0.4 1.9 72 1.9 NNW 24 33 13 18 1004.7 1005.0 0.0
25/03:30am 6.5 0.6 1.8 72 1.9 NNW 22 35 12 19 1004.9 1005.2 0.0
25/03:00am 6.2 -0.4 1.9 74 1.8 NNW 26 39 14 21 1005.3 1005.6 0.0
25/02:30am 6.3 1.0 1.8 73 1.8 NNW 19 26 10 14 1005.9 1006.1 0.0
25/02:00am 7.2 0.5 1.7 68 2.3 NW 26 35 14 19 1005.8 1006.0 0.0
25/01:30am 6.9 0.6 1.8 70 2.1 NW 24 39 13 21 1006.2 1006.4 0.0
25/01:00am 7.1 0.1 1.8 69 2.2 WNW 28 44 15 24 1006.4 1006.6 0.0
25/12:30am 6.9 0.2 1.6 69 2.2 NW 26 43 14 23 1006.7 1006.9 0.0
25/12:00am 6.2 0.3 1.9 74 1.8 NW 22 35 12 19 1007.1 1007.3 0.0
 
Date/Time
EST
Temp
°C
App
Temp
°C
Dew
Point
°C
Rel
Hum
%
Delta-T
°C
Wind Press
QNH
hPa
Press
MSL
hPa
Rain since
9am
mm
Dir  Spd
km/h
Gust
km/h
Spd
kts
Gust
kts
24/11:30pm 6.7 0.4 1.4 69 2.2 WNW 24 35 13 19 1007.3 1007.5 0.0
24/11:00pm 6.9 0.6 1.4 68 2.3 WNW 24 41 13 22 1007.6 1007.8 0.0
24/10:30pm 7.0 -0.8 1.5 68 2.3 WNW 32 43 17 23 1007.9 1008.1 0.0
24/10:00pm 6.6 0.4 2.1 73 1.9 WNW 24 39 13 21 1008.1 1008.4 0.0
24/09:30pm 6.5 2.4 2.0 73 1.9 WNW 13 30 7 16 1008.3 1008.6 0.0
24/09:00pm 6.5 0.2 1.8 72 1.9 NW 24 41 13 22 1008.2 1008.5 0.0
24/08:36pm 6.6 -0.4 1.9 72 1.9 NW 28 46 15 25 1008.4 1008.7 0.0
24/08:30pm 6.6 0.7 1.9 72 1.9 NW 22 43 12 23 1008.4 1008.7 0.0
24/08:00pm 6.8 1.8 1.5 69 2.2 WNW 17 37 9 20 1008.7 1009.0 0.0
24/07:30pm 6.7 2.8 1.4 69 2.2 NW 11 37 6 20 1008.6 1008.9 0.0
24/07:00pm 6.7 3.6 1.6 70 2.1 NNW 7 32 4 17 1008.3 1008.6 0.0
24/06:30pm 6.9 2.2 1.0 66 2.4 W 15 44 8 24 1008.6 1008.9 0.0
24/06:00pm 6.9 1.9 1.4 68 2.3 WNW 17 37 9 20 1008.6 1008.9 0.0
24/05:30pm 6.9 2.4 2.0 71 2.0 W 15 44 8 24 1008.5 1008.8 0.0
24/05:00pm 6.6 2.7 1.3 69 2.2 W 11 35 6 19 1008.4 1008.7 0.0
24/04:30pm 6.6 3.2 1.9 72 1.9 NW 9 33 5 18 1008.5 1008.8 0.0
24/04:00pm 6.5 3.1 1.6 71 2.0 WNW 9 32 5 17 1008.5 1008.8 0.0
24/03:30pm 6.4 3.4 1.7 72 1.9 NNE 7 35 4 19 1008.4 1008.7 0.0
24/03:00pm 7.0 3.5 1.1 66 2.4 NW 9 32 5 17 1008.4 1008.7 0.0
24/02:30pm 7.6 4.1 1.5 65 2.5 WNW 9 32 5 17 1008.2 1008.5 0.0
24/02:00pm 7.2 3.7 1.5 67 2.3 SW 9 33 5 18 1008.1 1008.4 0.0
24/01:30pm 7.2 3.7 1.3 66 2.4 NNE 9 28 5 15 1008.1 1008.4 0.0
24/01:00pm 7.1 3.1 0.8 64 2.5 ESE 11 32 6 17 1008.1 1008.4 0.0
24/12:30pm 6.8 2.8 0.7 65 2.4 W 11 39 6 21 1008.2 1008.5 0.0
24/12:00pm 6.7 3.2 1.0 67 2.3 SW 9 24 5 13 1008.2 1008.5 0.0
24/11:30am 6.5 2.6 1.2 69 2.1 WSW 11 33 6 18 1008.3 1008.6 0.0
24/11:00am 6.1 1.8 0.9 69 2.1 W 13 39 7 21 1008.5 1008.8 0.0
24/10:30am 5.6 1.0 1.7 76 1.6 WNW 15 43 8 23 1008.8 1009.1 0.0
24/10:00am 5.9 1.7 1.8 75 1.7 NNW 13 43 7 23 1008.4 1008.7 0.0
24/09:30am 5.5 1.6 1.1 73 1.8 N 11 37 6 20 1008.1 1008.4 0.0
24/09:00am 4.8 0.5 1.3 78 1.4 NNW 13 39 7 21 1008.2 1008.5 10.0
24/08:30am 4.8 0.6 1.5 79 1.3 NNW 13 41 7 22 1007.7 1007.9 10.0
24/08:00am 4.5 0.3 1.4 80 1.2 WSW 13 46 7 25 1007.6 1007.8 10.0
24/07:30am 4.7 1.6 1.2 78 1.4 ESE 7 24 4 13 1007.2 1007.4 9.8
24/07:00am 4.8 0.5 1.3 78 1.4 W 13 37 7 20 1007.3 1007.5 9.8
24/06:30am 4.5 0.5 0.5 75 1.6 S 11 32 6 17 1006.5 1006.7 9.8
24/06:00am 4.4 0.7 0.2 74 1.6 W 9 28 5 15 1006.2 1006.4 9.8
24/05:30am 4.5 0.2 1.2 79 1.3 NW 13 39 7 21 1006.3 1006.5 9.8
24/05:00am 4.1 -1.0 0.6 78 1.4 WSW 17 50 9 27 1006.0 1006.2 9.8
24/04:30am 4.2 0.1 -0.2 73 1.7 NNW 11 39 6 21 1006.1 1006.3 9.8
24/04:00am 3.6 -2.6 2.1 90 0.6 WSW 24 65 13 35 1005.6 1005.9 9.8
24/03:44am 3.8 -3.2 1.7 86 0.8 WSW 28 67 15 36 1005.4 1005.7 9.6
24/03:30am 4.3 -0.4 1.0 79 1.3 NW 15 48 8 26 1005.3 1005.6 9.4
24/03:00am 3.1 -2.7 -0.2 79 1.2 SSW 20 50 11 27 1005.4 1005.7 9.2
24/02:30am 4.9 0.2 1.2 77 1.5 WSW 15 37 8 20 1004.8 1005.1 8.6
24/02:00am 4.6 -0.1 0.6 75 1.6 SE 15 56 8 30 1004.5 1004.8 8.6
24/01:30am 5.0 -3.9 0.8 74 1.7 WSW 37 74 20 40 1003.8 1004.0 8.6
24/01:28am 5.4 -3.8 1.0 73 1.8 SW 39 74 21 40 1004.1 1004.3 8.6
24/01:24am 5.5 -2.4 -1.2 62 2.5 SSW 30 74 16 40 1003.9 1004.1 8.6
24/01:20am 5.3 -0.2 -2.0 59 2.7 SSW 17 54 9 29 1004.1 1004.3 8.4
24/01:00am 4.2 -0.5 1.2 81 1.2 WNW 15 54 8 29 1004.1 1004.3 8.4
24/12:38am 4.1 -6.7 -0.3 73 1.7 SW 46 93 25 50 1003.6 1003.8 8.2
24/12:35am 4.1 -5.8 -0.7 71 1.8 SW 41 93 22 50 1003.3 1003.5 8.0
24/12:30am 3.3 -2.9 -0.2 78 1.3 SW 22 74 12 40 1003.9 1004.1 8.0
24/12:29am 3.9 -1.6 0.6 79 1.3 SW 19 74 10 40 1003.8 1004.0 8.0
24/12:00am 3.9 -0.3 1.9 87 0.8 NNE 13 35 7 19 1003.7 1003.9 7.4
 
Date/Time
EST
Temp
°C
App
Temp
°C
Dew
Point
°C
Rel
Hum
%
Delta-T
°C
Wind Press
QNH
hPa
Press
MSL
hPa
Rain since
9am
mm
Dir  Spd
km/h
Gust
km/h
Spd
kts
Gust
kts
23/11:30pm 3.3 -3.7 1.8 90 0.6 SW 28 70 15 38 1003.5 1003.7 6.8
23/11:23pm 3.9 -1.6 1.9 87 0.8 W 20 69 11 37 1002.9 1003.1 6.2
23/11:00pm 4.2 0.1 2.2 87 0.8 NNW 13 48 7 26 1003.0 1003.2 6.0
23/10:30pm 2.9 -4.1 1.9 93 0.4 WSW 28 85 15 46 1002.7 1002.9 6.0
23/10:00pm 3.5 -4.4 2.0 90 0.6 SW 33 76 18 41 1002.3 1002.5 5.4
23/09:45pm 4.1 -1.3 2.5 89 0.7 SSW 20 76 11 41 1001.9 1002.1 5.0
23/09:30pm 4.4 -0.9 3.2 92 0.5 W 20 63 11 34 1002.1 1002.3 4.4
23/09:00pm 5.4 1.1 1.3 75 1.7 N 13 35 7 19 1001.8 1002.0 3.8
23/08:30pm 6.0 1.3 0.6 68 2.1 SSW 15 48 8 26 1001.1 1001.4 3.8
23/08:00pm 6.0 1.5 -0.3 64 2.5 WNW 13 44 7 24 1001.0 1001.3 3.8
23/07:30pm 6.0 1.2 0.1 66 2.3 NNW 15 61 8 33 1000.9 1001.1 3.8
23/07:00pm 6.2 1.3 -0.3 63 2.5 NNW 15 41 8 22 1000.7 1000.9 3.8
23/06:30pm 6.2 0.5 -0.7 61 2.7 NW 19 72 10 39 999.6 999.8 3.8
23/06:13pm 6.2 0.6 -0.3 63 2.5 WNW 19 70 10 38 999.7 999.9 3.8
23/06:00pm 6.3 1.4 1.8 73 1.9 N 17 56 9 30 999.8 1000.0 3.8
23/05:30pm 6.4 1.4 4.7 89 0.7 W 20 61 11 33 999.9 1000.1 3.8
23/05:00pm 5.5 -1.7 4.9 96 0.3 SW 32 76 17 41 998.7 998.9 2.8
23/04:44pm 5.9 -3.0 5.3 96 0.3 SSW 41 82 22 44 999.0 999.2 2.2
23/04:42pm 5.8 -3.5 5.2 96 0.3 SSW 43 82 23 44 998.7 998.9 2.2
23/04:30pm 6.3 -2.1 5.7 96 0.3 SSW 39 74 21 40 999.1 999.3 1.4
23/04:18pm 7.1 2.3 5.7 91 0.6 SW 20 76 11 41 999.0 999.2 0.8
23/04:00pm 9.6 6.7 6.5 81 1.5 W 11 32 6 17 999.0 999.2 0.4
23/03:30pm 9.3 5.7 6.6 83 1.3 WNW 15 37 8 20 998.9 999.1 0.4
23/03:00pm 9.3 6.3 7.6 89 0.8 WSW 13 39 7 21 998.8 999.0 0.4
23/02:45pm 11.0 6.2 5.5 69 2.6 WNW 20 48 11 26 998.8 999.0 0.0
23/02:30pm 12.2 3.2 4.4 59 3.6 NW 41 65 22 35 998.3 998.5 0.0
23/02:00pm 13.0 2.9 3.9 54 4.2 NW 46 69 25 37 998.4 998.6 0.0
23/01:30pm 13.3 5.0 4.2 54 4.2 NW 37 65 20 35 999.0 999.2 0.0
23/01:05pm 13.3 4.3 4.5 55 4.1 NW 41 59 22 32 999.6 999.8 0.0
23/01:00pm 13.2 3.6 4.4 55 4.1 NW 44 63 24 34 999.7 999.9 0.0
23/12:30pm 13.1 4.9 4.8 57 3.9 NW 37 56 20 30 1000.6 1000.8 0.0
23/12:03pm 12.8 6.2 4.3 56 3.9 NW 28 50 15 27 1001.7 1001.9 0.0
23/12:00pm 12.9 6.8 4.6 57 3.9 NW 26 43 14 23 1001.8 1002.0 0.0
23/11:34am 12.6 5.3 4.3 57 3.8 NNW 32 50 17 27 1002.3 1002.5 0.0
23/11:30am 12.5 5.0 4.2 57 3.8 NW 33 50 18 27 1002.4 1002.6 0.0
23/11:00am 11.6 2.1 3.9 59 3.5 NW 43 67 23 36 1003.1 1003.3 0.0
23/10:30am 11.5 2.4 4.0 60 3.4 NW 41 61 22 33 1004.0 1004.2 0.0
23/10:00am 10.9 0.5 4.1 63 3.1 NW 48 72 26 39 1004.4 1004.6 0.0
23/09:30am 10.2 -0.3 3.7 64 2.9 NW 48 67 26 36 1005.0 1005.3 0.0
23/09:04am 10.4 2.1 4.3 66 2.8 NW 37 56 20 30 1005.6 1005.9 0.0
23/09:00am 10.4 2.5 4.3 66 2.8 NNW 35 52 19 28 1005.6 1005.9 0.0
23/08:41am 9.6 3.0 4.2 69 2.4 NNW 28 46 15 25 1006.1 1006.3 0.0
23/08:30am 9.5 2.9 4.1 69 2.4 NW 28 43 15 23 1006.4 1006.6 0.0
23/08:00am 9.0 3.1 3.8 70 2.3 NNW 24 35 13 19 1007.1 1007.3 0.0
23/07:36am 9.7 2.7 4.1 68 2.5 NW 30 50 16 27 1007.3 1007.5 0.0
23/07:30am 9.3 3.1 4.1 70 2.3 NW 26 37 14 20 1007.4 1007.6 0.0
23/07:00am 8.8 2.4 5.0 77 1.7 N 28 46 15 25 1007.9 1008.1 0.0
23/06:30am 8.9 2.4 4.9 76 1.8 N 28 43 15 23 1008.0 1008.3 0.0
23/06:11am 9.2 2.6 4.2 71 2.2 N 28 46 15 25 1007.9 1008.1 0.0
23/06:00am 9.1 3.2 4.1 71 2.2 N 24 39 13 21 1008.0 1008.3 0.0
23/05:30am 8.6 3.4 3.8 72 2.1 N 20 35 11 19 1008.5 1008.8 0.0
23/05:00am 8.5 1.4 3.6 71 2.1 N 30 43 16 23 1008.9 1009.2 0.0
23/04:30am 8.1 2.8 3.2 71 2.1 NNW 20 37 11 20 1009.4 1009.7 0.0
23/04:00am 8.2 2.5 3.1 70 2.2 NNW 22 35 12 19 1009.9 1010.2 0.0
23/03:30am 8.4 2.4 3.1 69 2.3 NW 24 41 13 22 1010.4 1010.6 0.0
23/03:00am 7.9 2.6 3.0 71 2.1 NNW 20 28 11 15 1011.1 1011.3 0.0
23/02:30am 7.9 1.9 3.4 73 1.9 NNW 24 35 13 19 1011.8 1012.1 0.0
23/02:00am 7.5 1.8 2.6 71 2.1 NNW 22 33 12 18 1012.2 1012.5 0.0
23/01:30am 7.8 1.6 2.3 68 2.3 NNW 24 39 13 21 1012.6 1012.9 0.0
23/01:00am 7.6 1.8 2.1 68 2.3 NNW 22 39 12 21 1012.9 1013.2 0.0
23/12:30am 7.3 1.1 2.0 69 2.2 NNW 24 35 13 19 1013.4 1013.7 0.0
23/12:00am 7.2 0.5 1.5 67 2.3 NNW 26 35 14 19 1014.0 1014.3 0.0
 
Date/Time
EST
Temp
°C
App
Temp
°C
Dew
Point
°C
Rel
Hum
%
Delta-T
°C
Wind Press
QNH
hPa
Press
MSL
hPa
Rain since
9am
mm
Dir  Spd
km/h
Gust
km/h
Spd
kts
Gust
kts
22/11:30pm 7.1 0.4 1.2 66 2.4 NW 26 35 14 19 1014.6 1014.8 0.0
22/11:00pm 7.1 1.1 1.2 66 2.4 NNW 22 33 12 18 1015.0 1015.3 0.0
22/10:30pm 6.9 0.9 1.0 66 2.4 NNW 22 39 12 21 1015.5 1015.8 0.0
22/10:00pm 7.1 1.4 0.8 64 2.5 NNW 20 32 11 17 1015.8 1016.1 0.0
22/09:30pm 7.6 1.5 0.6 61 2.8 NW 22 39 12 21 1016.2 1016.5 0.0
22/09:00pm 7.3 1.6 0.7 63 2.7 NNW 20 32 11 17 1016.6 1016.9 0.0

Latest Capital City Observations: Canberra | Sydney | Melbourne | Brisbane | Adelaide | Perth | Hobart | Darwin

Other Formats:

Comma delimited format used in spreadsheet applications
http://www.bom.gov.au/fwo/IDT60901/IDT60901.95986.axf

JavaScript Object Notation format (JSON) in row-major order
http://www.bom.gov.au/fwo/IDT60901/IDT60901.95986.json